x

Buoy B01 - Western Maine Shelf (44030) Wave Buoy

7:04 - Wed 4th May 2016 All times are EDT. -4 hours from GMT.

  • Sig Wave height 4.3ft
  • Peak Period 5s
  • Wind
    20mph, 25mph gusts
  • Sea Temp 45°f
  • Ar Temp 43°f
  • Sea Pressure 1010.8mb
  • Buoy B01 - Western Maine Shelf
  • Buoy B01 - Western Maine Shelf

More Historic Weather Station data

Upgrade to MSW Pro to gain access to the past 30 days of data for over 8000 Wavebouys and Weather Stations around the globe.

Join Pro

Comparision Forecast

View Surf forecast
   
Qua 05/04 7:04 4.5ft 5s 20 25 mph 1010.8mb 45f 43f
6:04 4.5ft 5s 18 20 mph 1011.1mb 45f 43f
5:04 4ft 8s 18 22 mph 1011.1mb 46f 43f
4:04 3.5ft 8s 16 20 mph 1011.1mb 46f 43f
3:04 3ft 8s 13 16 mph 1011.7mb 46f 44f
2:04 2.5ft 8s 13 16 mph 1012.2mb 46f 44f
1:04 3ft 11s 9 11 mph 1012.6mb 46f 45f
12:04 2.5ft 11s 9 11 mph 1013mb 45f 45f
11:04 2.5ft 11s 7 9 mph 1012.8mb 45f 45f
10:04 2.5ft 8s 9
mph
1011.9mb 45f 46f
9:04 2ft 8s 7
mph
1012.6mb 45f 46f
8:04 2.5ft 8s 4 7 mph 1012.4mb 45f 45f
7:04 2.5ft 8s 4 7 mph 1011.9mb 45f 45f
6:04 2.5ft 8s 4 7 mph 1011.8mb 45f 44f
5:04 2.5ft 8s 4
mph
1011.3mb 45f 44f
4:04 2.5ft 8s 4
mph
1011.2mb 45f 44f
3:04 2.5ft 8s 4
mph
1011mb 45f 44f
2:04 2ft 8s 2
mph
1011.1mb 45f 44f
1:04 2.5ft 8s 4
mph
1011.4mb 45f 45f
12:04 2.5ft 8s 2 4 mph 1011.3mb 45f 44f
Ter 05/03 11:04 2.5ft 6s 2
mph
1011.6mb 46f 45f
10:04 2.5ft 8s 2
mph
1011.6mb 45f 45f
9:04 3ft 8s 4 7 mph 1011.6mb 46f 45f
8:04 3ft 8s 4
mph
1011.1mb 46f 45f
7:04 3.5ft 8s 2 4 mph 1010.7mb 46f 45f
6:04 3ft 8s 2 4 mph 1010.7mb 46f 45f
5:04 3.5ft 8s 7
mph
1010.8mb 46f 46f
4:04 3.5ft 8s 4 7 mph 1011mb 46f 46f
3:04 3ft 8s 4
mph
1011.3mb 47f 47f
2:04 2.5ft 8s 4
mph
1011.5mb 47f 47f
1:04 3ft 8s 2 4 mph 1012.3mb 47f 47f
12:04 3ft 6s 2 4 mph 1012.5mb 47f 46f
11:04 3.5ft 8s 4
mph
1012.7mb 46f 45f
10:04  -   -  2 4 mph 1013mb 46f 45f
9:04 3.5ft 8s 2
mph
1013mb 45f 44f
8:04 4ft 8s 2
mph
1013.3mb 45f 44f
7:04 4ft 8s 2
mph
1013.3mb 45f 44f
6:04 4.5ft 6s 7 9 mph 1012.9mb 45f 44f
5:04 4.5ft 6s 7
mph
1012.5mb 45f 44f
4:04 4ft 11s 4 7 mph 1012.6mb 46f 44f
3:04 4.5ft 6s 9
mph
1012.8mb 46f 44f
2:04 5ft 8s 13 16 mph 1012.6mb 46f 44f
1:04 4.5ft 6s 16 18 mph 1012.6mb 46f 44f
12:04 4ft 8s 13 18 mph 1012.7mb 46f 45f
Seg 05/02 11:04 4.5ft 8s 16 20 mph 1013.4mb 46f 45f
10:04 4.5ft 8s 16 18 mph 1013.1mb 46f 45f
9:04 5ft 6s 13 16 mph 1012.7mb 46f 45f
8:04 5ft 6s 13 16 mph 1012.2mb 46f 45f
7:04 5.5ft 6s 18 20 mph 1011.8mb 46f 44f
6:04 5ft 5s 22 25 mph 1011.3mb 46f 44f
5:04 4.5ft 8s 18 22 mph 1011.8mb 46f 44f
4:04 5ft 11s 13 18 mph 1011.6mb 46f 44f
3:04 5ft 8s 16 18 mph 1012.7mb 46f 44f
2:04 4ft 8s 11 13 mph 1014.3mb 46f 45f
1:04 4.5ft 8s 11 13 mph 1015.2mb 46f 45f
12:04 3.5ft 8s 9 11 mph 1015.9mb 46f 45f
11:04 4.5ft 8s 13
mph
1016.5mb 46f 45f
10:04 2.5ft 5s 11 13 mph 1017.6mb 46f 45f
9:04 4.5ft 11s 13 16 mph 1017.5mb 46f 45f
8:04  -   -  13 16 mph 1018mb 46f 44f
7:04 4ft 11s 16
mph
1018.6mb 46f 44f
6:04 4.5ft 8s 13 16 mph 1018.1mb 46f 43f
5:04 4.5ft 11s 13
mph
1018.4mb 46f 44f
4:04 4.5ft 11s 9 11 mph 1018.9mb 46f 43f
3:04 4.5ft 11s 11 13 mph 1019.2mb 46f 43f
2:04 5ft 8s 7 9 mph 1019.9mb 46f 44f
1:04 4.5ft 8s 7 9 mph 1020.3mb 46f 45f
12:04 4ft 8s 9 11 mph 1020.5mb 46f 45f
Dom 05/01 11:04 4.5ft 11s 9 11 mph 1021.2mb 46f 45f
10:04 4.5ft 11s 9 11 mph 1021.7mb 46f 46f
9:04 4.5ft 11s 9 11 mph 1022.1mb 46f 46f
8:04 4.5ft 11s 9 11 mph 1022.3mb 46f 46f
7:04 4ft 11s 9 11 mph 1022.1mb 46f 46f
6:04 4ft 11s 7 9 mph 1022.7mb 46f 46f
5:04 4.5ft 11s 9 11 mph 1022.9mb 46f 46f
4:04 4.5ft 11s 11
mph
1023.9mb 46f 46f
3:04 4ft 11s 7 9 mph 1024.2mb 46f 46f
2:04 4ft 8s 9 11 mph 1024.2mb 46f 46f
1:04 3.5ft 8s 13 18 mph 1024.2mb 46f 46f
12:04 3ft 8s 13 16 mph 1024mb 46f 46f
11:04 2ft 4s 13 16 mph 1023.7mb 46f 46f
10:04 2.5ft 8s 13
mph
1023.9mb 46f 46f
9:04 2.5ft 8s 11 13 mph 1023.9mb 46f 46f
8:04 2.5ft 8s 9
mph
1023.6mb 46f 47f
7:04 2.5ft 6s 9 11 mph 1023.5mb 46f 46f
6:04 2.5ft 8s 9 11 mph 1023mb 46f 46f
5:04 2.5ft 6s 9 13 mph 1022.8mb 46f 46f
4:04 3ft 6s 11 13 mph 1023mb 46f 46f
3:04 3ft 8s 11 13 mph 1022.9mb 46f 46f
2:04 3.5ft 8s 11 13 mph 1023.1mb 46f 46f
1:04 3ft 8s 13 16 mph 1023.7mb 46f 46f